sensor_id;sensor_type;location;lat;lon;timestamp;pressure;altitude;pressure_sealevel;temperature;humidity
5284;BME280;15377;48.540;9.268;2023-04-28T00:01:46;97292.34;;;9.75;100.00
5284;BME280;15377;48.540;9.268;2023-04-28T00:04:12;97262.00;;;9.69;100.00
5284;BME280;15377;48.540;9.268;2023-04-28T00:06:37;97270.19;;;9.78;100.00
5284;BME280;15377;48.540;9.268;2023-04-28T00:09:05;97269.81;;;9.85;100.00
5284;BME280;15377;48.540;9.268;2023-04-28T00:11:30;97275.91;;;9.89;100.00
5284;BME280;15377;48.540;9.268;2023-04-28T00:13:56;97274.09;;;9.86;100.00
5284;BME280;15377;48.540;9.268;2023-04-28T00:16:21;97252.28;;;9.83;100.00
5284;BME280;15377;48.540;9.268;2023-04-28T00:18:46;97263.41;;;9.88;100.00
5284;BME280;15377;48.540;9.268;2023-04-28T00:21:12;97272.09;;;9.87;100.00
5284;BME280;15377;48.540;9.268;2023-04-28T00:23:37;97268.94;;;9.79;100.00
5284;BME280;15377;48.540;9.268;2023-04-28T00:26:03;97276.84;;;9.86;100.00
5284;BME280;15377;48.540;9.268;2023-04-28T00:28:28;97271.34;;;9.86;100.00
5284;BME280;15377;48.540;9.268;2023-04-28T00:30:53;97261.69;;;9.91;100.00
5284;BME280;15377;48.540;9.268;2023-04-28T00:33:19;97260.66;;;9.88;100.00
5284;BME280;15377;48.540;9.268;2023-04-28T00:35:44;97259.41;;;9.89;100.00
5284;BME280;15377;48.540;9.268;2023-04-28T00:38:10;97260.75;;;9.94;100.00
5284;BME280;15377;48.540;9.268;2023-04-28T00:40:37;97261.50;;;9.94;100.00
5284;BME280;15377;48.540;9.268;2023-04-28T00:43:03;97248.25;;;9.93;100.00
5284;BME280;15377;48.540;9.268;2023-04-28T00:45:28;97251.75;;;9.93;100.00
5284;BME280;15377;48.540;9.268;2023-04-28T00:47:55;97247.56;;;9.83;100.00
5284;BME280;15377;48.540;9.268;2023-04-28T00:50:22;97254.84;;;9.86;100.00
5284;BME280;15377;48.540;9.268;2023-04-28T00:52:48;97251.47;;;9.91;100.00
5284;BME280;15377;48.540;9.268;2023-04-28T00:55:14;97254.50;;;9.93;100.00
5284;BME280;15377;48.540;9.268;2023-04-28T00:57:40;97240.19;;;9.89;100.00
5284;BME280;15377;48.540;9.268;2023-04-28T01:00:07;97248.72;;;9.91;100.00
5284;BME280;15377;48.540;9.268;2023-04-28T01:02:34;97244.25;;;9.94;100.00
5284;BME280;15377;48.540;9.268;2023-04-28T01:05:00;97238.31;;;9.95;100.00
5284;BME280;15377;48.540;9.268;2023-04-28T01:07:25;97227.66;;;9.88;100.00
5284;BME280;15377;48.540;9.268;2023-04-28T01:09:51;97233.38;;;9.99;100.00
5284;BME280;15377;48.540;9.268;2023-04-28T01:12:16;97238.94;;;9.90;100.00
5284;BME280;15377;48.540;9.268;2023-04-28T01:14:42;97234.97;;;9.91;100.00
5284;BME280;15377;48.540;9.268;2023-04-28T01:17:07;97231.75;;;9.93;100.00
5284;BME280;15377;48.540;9.268;2023-04-28T01:19:33;97224.56;;;9.95;100.00
5284;BME280;15377;48.540;9.268;2023-04-28T01:21:58;97232.75;;;10.04;100.00
5284;BME280;15377;48.540;9.268;2023-04-28T01:24:24;97234.00;;;10.03;100.00
5284;BME280;15377;48.540;9.268;2023-04-28T01:26:49;97232.41;;;10.02;100.00
5284;BME280;15377;48.540;9.268;2023-04-28T01:29:14;97231.50;;;10.05;100.00
5284;BME280;15377;48.540;9.268;2023-04-28T01:31:40;97228.16;;;10.01;100.00
5284;BME280;15377;48.540;9.268;2023-04-28T01:34:05;97209.69;;;10.02;100.00
5284;BME280;15377;48.540;9.268;2023-04-28T01:36:31;97206.50;;;10.03;100.00
5284;BME280;15377;48.540;9.268;2023-04-28T01:38:57;97210.75;;;10.04;100.00
5284;BME280;15377;48.540;9.268;2023-04-28T01:41:22;97206.94;;;10.02;100.00
5284;BME280;15377;48.540;9.268;2023-04-28T01:43:47;97197.06;;;9.95;100.00
5284;BME280;15377;48.540;9.268;2023-04-28T01:46:13;97185.22;;;9.89;100.00
5284;BME280;15377;48.540;9.268;2023-04-28T01:48:38;97195.53;;;9.94;100.00
5284;BME280;15377;48.540;9.268;2023-04-28T01:51:04;97209.41;;;10.00;100.00
5284;BME280;15377;48.540;9.268;2023-04-28T01:53:30;97186.63;;;9.99;100.00
5284;BME280;15377;48.540;9.268;2023-04-28T01:58:52;97191.56;;;9.95;100.00
5284;BME280;15377;48.540;9.268;2023-04-28T02:01:17;97197.06;;;9.95;100.00
5284;BME280;15377;48.540;9.268;2023-04-28T02:03:43;97181.31;;;9.96;100.00
5284;BME280;15377;48.540;9.268;2023-04-28T02:06:08;97179.03;;;9.94;100.00
5284;BME280;15377;48.540;9.268;2023-04-28T02:08:34;97200.31;;;10.08;100.00
5284;BME280;15377;48.540;9.268;2023-04-28T02:10:59;97198.25;;;10.03;100.00
5284;BME280;15377;48.540;9.268;2023-04-28T02:13:25;97198.81;;;10.07;100.00
5284;BME280;15377;48.540;9.268;2023-04-28T02:15:51;97192.13;;;9.99;100.00
5284;BME280;15377;48.540;9.268;2023-04-28T02:18:16;97186.81;;;9.96;100.00
5284;BME280;15377;48.540;9.268;2023-04-28T02:20:41;97180.59;;;9.95;100.00
5284;BME280;15377;48.540;9.268;2023-04-28T02:23:07;97191.03;;;10.06;100.00
5284;BME280;15377;48.540;9.268;2023-04-28T02:25:32;97185.34;;;10.09;100.00
5284;BME280;15377;48.540;9.268;2023-04-28T02:27:58;97169.81;;;10.06;100.00
5284;BME280;15377;48.540;9.268;2023-04-28T02:30:23;97164.50;;;10.03;100.00
5284;BME280;15377;48.540;9.268;2023-04-28T02:32:48;97152.69;;;10.02;100.00
5284;BME280;15377;48.540;9.268;2023-04-28T02:35:14;97155.28;;;10.06;100.00
5284;BME280;15377;48.540;9.268;2023-04-28T02:37:39;97144.94;;;10.01;100.00
5284;BME280;15377;48.540;9.268;2023-04-28T02:40:05;97159.00;;;10.03;100.00
5284;BME280;15377;48.540;9.268;2023-04-28T02:42:31;97174.34;;;10.09;100.00
5284;BME280;15377;48.540;9.268;2023-04-28T02:44:56;97163.34;;;10.09;100.00
5284;BME280;15377;48.540;9.268;2023-04-28T02:47:21;97179.47;;;10.16;100.00
5284;BME280;15377;48.540;9.268;2023-04-28T02:49:47;97163.94;;;10.13;100.00
5284;BME280;15377;48.540;9.268;2023-04-28T02:52:12;97176.25;;;10.18;100.00
5284;BME280;15377;48.540;9.268;2023-04-28T02:54:37;97176.63;;;10.25;100.00
5284;BME280;15377;48.540;9.268;2023-04-28T02:57:03;97173.03;;;10.19;100.00
5284;BME280;15377;48.540;9.268;2023-04-28T02:59:29;97178.91;;;10.27;100.00
5284;BME280;15377;48.540;9.268;2023-04-28T03:01:54;97168.66;;;10.27;100.00
5284;BME280;15377;48.540;9.268;2023-04-28T03:04:20;97173.56;;;10.38;100.00
5284;BME280;15377;48.540;9.268;2023-04-28T03:06:45;97174.34;;;10.38;100.00
5284;BME280;15377;48.540;9.268;2023-04-28T03:09:11;97171.00;;;10.34;100.00
5284;BME280;15377;48.540;9.268;2023-04-28T03:11:37;97178.34;;;10.37;100.00
5284;BME280;15377;48.540;9.268;2023-04-28T03:14:02;97181.94;;;10.43;100.00
5284;BME280;15377;48.540;9.268;2023-04-28T03:16:27;97178.78;;;10.50;100.00
5284;BME280;15377;48.540;9.268;2023-04-28T03:18:53;97177.38;;;10.55;100.00
5284;BME280;15377;48.540;9.268;2023-04-28T03:21:18;97176.88;;;10.56;100.00
5284;BME280;15377;48.540;9.268;2023-04-28T03:23:44;97173.19;;;10.59;100.00
5284;BME280;15377;48.540;9.268;2023-04-28T03:26:09;97186.06;;;10.68;100.00
5284;BME280;15377;48.540;9.268;2023-04-28T03:28:35;97175.06;;;10.68;100.00
5284;BME280;15377;48.540;9.268;2023-04-28T03:31:01;97186.44;;;10.75;100.00
5284;BME280;15377;48.540;9.268;2023-04-28T03:33:27;97169.34;;;10.71;100.00
5284;BME280;15377;48.540;9.268;2023-04-28T03:35:52;97175.44;;;10.75;100.00
5284;BME280;15377;48.540;9.268;2023-04-28T03:38:18;97167.19;;;10.75;100.00
5284;BME280;15377;48.540;9.268;2023-04-28T03:40:44;97172.94;;;10.77;100.00
5284;BME280;15377;48.540;9.268;2023-04-28T03:43:09;97175.72;;;10.77;100.00
5284;BME280;15377;48.540;9.268;2023-04-28T03:45:35;97178.06;;;10.84;100.00
5284;BME280;15377;48.540;9.268;2023-04-28T03:48:00;97166.88;;;10.73;100.00
5284;BME280;15377;48.540;9.268;2023-04-28T03:50:26;97172.22;;;10.62;100.00
5284;BME280;15377;48.540;9.268;2023-04-28T03:52:51;97165.59;;;10.54;100.00
5284;BME280;15377;48.540;9.268;2023-04-28T03:55:16;97166.94;;;10.44;100.00
5284;BME280;15377;48.540;9.268;2023-04-28T03:57:42;97159.50;;;10.50;100.00
5284;BME280;15377;48.540;9.268;2023-04-28T04:00:08;97153.47;;;10.46;100.00
5284;BME280;15377;48.540;9.268;2023-04-28T04:02:34;97145.59;;;10.39;100.00
5284;BME280;15377;48.540;9.268;2023-04-28T04:04:59;97148.94;;;10.43;100.00
5284;BME280;15377;48.540;9.268;2023-04-28T04:07:25;97152.22;;;10.47;100.00
5284;BME280;15377;48.540;9.268;2023-04-28T04:09:50;97151.75;;;10.49;100.00
5284;BME280;15377;48.540;9.268;2023-04-28T04:12:16;97137.94;;;10.43;100.00
5284;BME280;15377;48.540;9.268;2023-04-28T04:14:41;97149.28;;;10.51;100.00
5284;BME280;15377;48.540;9.268;2023-04-28T04:17:07;97134.69;;;10.45;100.00
5284;BME280;15377;48.540;9.268;2023-04-28T04:19:32;97132.00;;;10.50;100.00
5284;BME280;15377;48.540;9.268;2023-04-28T04:21:58;97109.56;;;10.37;100.00
5284;BME280;15377;48.540;9.268;2023-04-28T04:24:23;97134.16;;;10.61;100.00
5284;BME280;15377;48.540;9.268;2023-04-28T04:26:49;97130.94;;;10.62;100.00
5284;BME280;15377;48.540;9.268;2023-04-28T04:29:14;97140.31;;;10.70;100.00
5284;BME280;15377;48.540;9.268;2023-04-28T04:31:40;97125.72;;;10.64;100.00
5284;BME280;15377;48.540;9.268;2023-04-28T04:34:05;97133.84;;;10.73;100.00
5284;BME280;15377;48.540;9.268;2023-04-28T04:36:30;97130.09;;;10.71;100.00
5284;BME280;15377;48.540;9.268;2023-04-28T04:38:57;97143.91;;;10.76;100.00
5284;BME280;15377;48.540;9.268;2023-04-28T04:41:22;97141.63;;;10.75;100.00
5284;BME280;15377;48.540;9.268;2023-04-28T04:43:47;97135.09;;;10.72;100.00
5284;BME280;15377;48.540;9.268;2023-04-28T04:46:13;97139.34;;;10.73;100.00
5284;BME280;15377;48.540;9.268;2023-04-28T04:48:38;97140.13;;;10.74;100.00
5284;BME280;15377;48.540;9.268;2023-04-28T04:51:04;97136.34;;;10.71;100.00
5284;BME280;15377;48.540;9.268;2023-04-28T04:53:30;97137.84;;;10.72;100.00
5284;BME280;15377;48.540;9.268;2023-04-28T04:55:55;97133.56;;;10.71;100.00
5284;BME280;15377;48.540;9.268;2023-04-28T04:58:20;97140.91;;;10.74;100.00
5284;BME280;15377;48.540;9.268;2023-04-28T05:00:46;97127.34;;;10.71;100.00
5284;BME280;15377;48.540;9.268;2023-04-28T05:03:11;97140.13;;;10.74;100.00
5284;BME280;15377;48.540;9.268;2023-04-28T05:05:36;97126.56;;;10.70;100.00
5284;BME280;15377;48.540;9.268;2023-04-28T05:08:02;97131.41;;;10.75;100.00
5284;BME280;15377;48.540;9.268;2023-04-28T05:10:27;97127.03;;;10.69;100.00
5284;BME280;15377;48.540;9.268;2023-04-28T05:12:53;97125.31;;;10.71;100.00
5284;BME280;15377;48.540;9.268;2023-04-28T05:15:18;97121.81;;;10.71;100.00
5284;BME280;15377;48.540;9.268;2023-04-28T05:17:44;97122.84;;;10.73;100.00
5284;BME280;15377;48.540;9.268;2023-04-28T05:20:09;97115.16;;;10.77;100.00
5284;BME280;15377;48.540;9.268;2023-04-28T05:22:35;97118.44;;;10.81;100.00
5284;BME280;15377;48.540;9.268;2023-04-28T05:25:00;97119.28;;;10.87;100.00
5284;BME280;15377;48.540;9.268;2023-04-28T05:27:26;97118.34;;;10.90;100.00
5284;BME280;15377;48.540;9.268;2023-04-28T05:29:51;97112.84;;;10.90;100.00
5284;BME280;15377;48.540;9.268;2023-04-28T05:32:16;97120.47;;;11.00;100.00
5284;BME280;15377;48.540;9.268;2023-04-28T05:34:42;97116.25;;;11.05;100.00
5284;BME280;15377;48.540;9.268;2023-04-28T05:37:07;97123.38;;;11.11;100.00
5284;BME280;15377;48.540;9.268;2023-04-28T05:39:32;97110.91;;;11.16;100.00
5284;BME280;15377;48.540;9.268;2023-04-28T05:41:58;97096.03;;;11.08;100.00
5284;BME280;15377;48.540;9.268;2023-04-28T05:44:23;97116.00;;;11.23;100.00
5284;BME280;15377;48.540;9.268;2023-04-28T05:46:49;97120.00;;;11.22;100.00
5284;BME280;15377;48.540;9.268;2023-04-28T05:49:14;97113.00;;;11.21;100.00
5284;BME280;15377;48.540;9.268;2023-04-28T05:51:40;97121.78;;;11.25;100.00
5284;BME280;15377;48.540;9.268;2023-04-28T05:54:05;97120.53;;;11.26;100.00
5284;BME280;15377;48.540;9.268;2023-04-28T05:56:32;97118.81;;;11.28;100.00
5284;BME280;15377;48.540;9.268;2023-04-28T05:58:57;97119.66;;;11.34;100.00
5284;BME280;15377;48.540;9.268;2023-04-28T06:01:23;97111.34;;;11.29;100.00
5284;BME280;15377;48.540;9.268;2023-04-28T06:03:48;97117.50;;;11.44;100.00
5284;BME280;15377;48.540;9.268;2023-04-28T06:06:13;97116.28;;;11.45;100.00
5284;BME280;15377;48.540;9.268;2023-04-28T06:08:39;97118.88;;;11.54;100.00
5284;BME280;15377;48.540;9.268;2023-04-28T06:11:05;97112.97;;;11.61;100.00
5284;BME280;15377;48.540;9.268;2023-04-28T06:13:30;97109.50;;;11.66;100.00
5284;BME280;15377;48.540;9.268;2023-04-28T06:15:56;97106.59;;;11.75;100.00
5284;BME280;15377;48.540;9.268;2023-04-28T06:18:22;97106.44;;;11.84;100.00
5284;BME280;15377;48.540;9.268;2023-04-28T06:20:48;97093.94;;;11.88;100.00
5284;BME280;15377;48.540;9.268;2023-04-28T06:23:13;97104.63;;;12.06;100.00
5284;BME280;15377;48.540;9.268;2023-04-28T06:25:39;97105.94;;;12.11;100.00
5284;BME280;15377;48.540;9.268;2023-04-28T06:28:05;97104.50;;;12.21;100.00
5284;BME280;15377;48.540;9.268;2023-04-28T06:30:31;97095.03;;;12.27;100.00
5284;BME280;15377;48.540;9.268;2023-04-28T06:32:56;97089.28;;;12.31;100.00
5284;BME280;15377;48.540;9.268;2023-04-28T06:35:22;97088.56;;;12.36;100.00
5284;BME280;15377;48.540;9.268;2023-04-28T06:37:48;97097.72;;;12.53;100.00
5284;BME280;15377;48.540;9.268;2023-04-28T06:40:13;97097.72;;;12.53;100.00
5284;BME280;15377;48.540;9.268;2023-04-28T06:42:39;97092.94;;;12.48;100.00
5284;BME280;15377;48.540;9.268;2023-04-28T06:45:07;97099.78;;;12.58;100.00
5284;BME280;15377;48.540;9.268;2023-04-28T06:47:33;97084.72;;;12.59;100.00
5284;BME280;15377;48.540;9.268;2023-04-28T06:49:58;97100.81;;;12.66;100.00
5284;BME280;15377;48.540;9.268;2023-04-28T06:52:23;97094.31;;;12.69;100.00
5284;BME280;15377;48.540;9.268;2023-04-28T06:54:49;97100.06;;;12.65;100.00
5284;BME280;15377;48.540;9.268;2023-04-28T06:57:15;97092.34;;;12.75;100.00
5284;BME280;15377;48.540;9.268;2023-04-28T06:59:40;97088.78;;;12.69;100.00
5284;BME280;15377;48.540;9.268;2023-04-28T07:02:08;97085.75;;;12.67;100.00
5284;BME280;15377;48.540;9.268;2023-04-28T07:04:33;97089.78;;;12.66;100.00
5284;BME280;15377;48.540;9.268;2023-04-28T07:06:59;97091.28;;;12.67;100.00
5284;BME280;15377;48.540;9.268;2023-04-28T07:09:24;97083.25;;;12.69;100.00
5284;BME280;15377;48.540;9.268;2023-04-28T07:11:49;97079.25;;;12.70;100.00
5284;BME280;15377;48.540;9.268;2023-04-28T07:14:15;97074.72;;;12.67;100.00
5284;BME280;15377;48.540;9.268;2023-04-28T07:16:40;97082.53;;;12.68;100.00
5284;BME280;15377;48.540;9.268;2023-04-28T07:19:06;97080.50;;;12.69;100.00
5284;BME280;15377;48.540;9.268;2023-04-28T07:21:31;97084.28;;;12.71;100.00
5284;BME280;15377;48.540;9.268;2023-04-28T07:23:56;97078.53;;;12.75;100.00
5284;BME280;15377;48.540;9.268;2023-04-28T07:26:24;97078.53;;;12.75;100.00
5284;BME280;15377;48.540;9.268;2023-04-28T07:28:50;97081.28;;;12.75;100.00
5284;BME280;15377;48.540;9.268;2023-04-28T07:31:16;97072.53;;;12.76;100.00
5284;BME280;15377;48.540;9.268;2023-04-28T07:33:41;97075.53;;;12.78;100.00
5284;BME280;15377;48.540;9.268;2023-04-28T07:36:07;97078.78;;;12.77;100.00
5284;BME280;15377;48.540;9.268;2023-04-28T07:38:33;97063.69;;;12.67;100.00
5284;BME280;15377;48.540;9.268;2023-04-28T07:40:59;97054.69;;;12.72;100.00
5284;BME280;15377;48.540;9.268;2023-04-28T07:43:24;97060.47;;;12.79;100.00
5284;BME280;15377;48.540;9.268;2023-04-28T07:45:49;97074.59;;;12.87;100.00
5284;BME280;15377;48.540;9.268;2023-04-28T07:48:15;97067.59;;;12.91;100.00
5284;BME280;15377;48.540;9.268;2023-04-28T07:50:41;97065.31;;;12.90;100.00
5284;BME280;15377;48.540;9.268;2023-04-28T07:53:06;97072.81;;;12.84;100.00
5284;BME280;15377;48.540;9.268;2023-04-28T07:55:31;97077.34;;;12.87;100.00
5284;BME280;15377;48.540;9.268;2023-04-28T07:57:57;97067.28;;;12.84;100.00
5284;BME280;15377;48.540;9.268;2023-04-28T08:00:23;97064.03;;;12.85;100.00
5284;BME280;15377;48.540;9.268;2023-04-28T08:02:48;97055.75;;;12.85;100.00
5284;BME280;15377;48.540;9.268;2023-04-28T08:05:15;97070.41;;;12.97;100.00
5284;BME280;15377;48.540;9.268;2023-04-28T08:07:41;97062.59;;;12.95;100.00
5284;BME280;15377;48.540;9.268;2023-04-28T08:10:09;97071.91;;;12.98;100.00
5284;BME280;15377;48.540;9.268;2023-04-28T08:12:35;97066.63;;;13.00;100.00
5284;BME280;15377;48.540;9.268;2023-04-28T08:15:01;97067.63;;;12.97;100.00
5284;BME280;15377;48.540;9.268;2023-04-28T08:17:26;97064.31;;;12.93;100.00
5284;BME280;15377;48.540;9.268;2023-04-28T08:19:52;97076.41;;;12.95;100.00
5284;BME280;15377;48.540;9.268;2023-04-28T08:22:17;97085.00;;;13.03;100.00
5284;BME280;15377;48.540;9.268;2023-04-28T08:24:42;97095.81;;;13.06;100.00
5284;BME280;15377;48.540;9.268;2023-04-28T08:27:08;97090.03;;;13.10;100.00
5284;BME280;15377;48.540;9.268;2023-04-28T08:29:33;97098.31;;;13.10;100.00
5284;BME280;15377;48.540;9.268;2023-04-28T08:31:59;97097.34;;;13.13;100.00
5284;BME280;15377;48.540;9.268;2023-04-28T08:34:26;97096.09;;;13.19;100.00
5284;BME280;15377;48.540;9.268;2023-04-28T08:36:51;97104.16;;;13.23;100.00
5284;BME280;15377;48.540;9.268;2023-04-28T08:39:17;97103.41;;;13.22;100.00
5284;BME280;15377;48.540;9.268;2023-04-28T08:41:44;97105.19;;;13.25;100.00
5284;BME280;15377;48.540;9.268;2023-04-28T08:44:10;97112.44;;;13.23;100.00
5284;BME280;15377;48.540;9.268;2023-04-28T08:46:42;97112.69;;;13.25;100.00
5284;BME280;15377;48.540;9.268;2023-04-28T08:49:13;97119.81;;;13.37;100.00
5284;BME280;15377;48.540;9.268;2023-04-28T08:51:45;97125.59;;;13.44;100.00
5284;BME280;15377;48.540;9.268;2023-04-28T08:54:14;97115.06;;;13.43;100.00
5284;BME280;15377;48.540;9.268;2023-04-28T08:56:43;97111.03;;;13.49;100.00
5284;BME280;15377;48.540;9.268;2023-04-28T08:59:09;97118.63;;;13.65;100.00
5284;BME280;15377;48.540;9.268;2023-04-28T09:01:35;97125.19;;;13.68;100.00
5284;BME280;15377;48.540;9.268;2023-04-28T09:04:01;97126.69;;;13.63;100.00
5284;BME280;15377;48.540;9.268;2023-04-28T09:06:31;97123.94;;;13.69;100.00
5284;BME280;15377;48.540;9.268;2023-04-28T09:09:26;97113.16;;;13.82;100.00
5284;BME280;15377;48.540;9.268;2023-04-28T09:11:58;97121.72;;;14.00;100.00
5284;BME280;15377;48.540;9.268;2023-04-28T09:14:25;97122.72;;;13.97;100.00
5284;BME280;15377;48.540;9.268;2023-04-28T09:16:51;97130.03;;;14.17;100.00
5284;BME280;15377;48.540;9.268;2023-04-28T09:19:17;97122.22;;;14.10;100.00
5284;BME280;15377;48.540;9.268;2023-04-28T09:21:47;97136.06;;;14.10;100.00
5284;BME280;15377;48.540;9.268;2023-04-28T09:26:59;97129.47;;;13.80;100.00
5284;BME280;15377;48.540;9.268;2023-04-28T09:29:25;97134.25;;;13.79;100.00
5284;BME280;15377;48.540;9.268;2023-04-28T09:31:50;97146.09;;;13.91;100.00
5284;BME280;15377;48.540;9.268;2023-04-28T09:34:17;97115.69;;;13.85;100.00
5284;BME280;15377;48.540;9.268;2023-04-28T09:36:42;97134.31;;;14.07;100.00
5284;BME280;15377;48.540;9.268;2023-04-28T09:39:08;97143.94;;;14.33;100.00
5284;BME280;15377;48.540;9.268;2023-04-28T09:41:43;97137.13;;;14.51;100.00
5284;BME280;15377;48.540;9.268;2023-04-28T09:46:39;97144.41;;;14.81;100.00
5284;BME280;15377;48.540;9.268;2023-04-28T09:49:05;97134.56;;;14.91;100.00
5284;BME280;15377;48.540;9.268;2023-04-28T09:51:30;97134.34;;;14.89;100.00
5284;BME280;15377;48.540;9.268;2023-04-28T09:53:59;97151.69;;;14.89;100.00
5284;BME280;15377;48.540;9.268;2023-04-28T09:56:26;97146.66;;;14.82;100.00
5284;BME280;15377;48.540;9.268;2023-04-28T09:58:52;97154.94;;;15.10;100.00
5284;BME280;15377;48.540;9.268;2023-04-28T10:01:18;97155.13;;;15.28;100.00
5284;BME280;15377;48.540;9.268;2023-04-28T10:03:44;97150.06;;;15.43;100.00
5284;BME280;15377;48.540;9.268;2023-04-28T10:06:10;97146.47;;;15.59;100.00
5284;BME280;15377;48.540;9.268;2023-04-28T10:08:36;97142.94;;;15.64;100.00
5284;BME280;15377;48.540;9.268;2023-04-28T10:11:01;97156.22;;;15.82;100.00
5284;BME280;15377;48.540;9.268;2023-04-28T10:13:27;97151.13;;;15.92;100.00
5284;BME280;15377;48.540;9.268;2023-04-28T10:15:53;97140.16;;;16.10;100.00
5284;BME280;15377;48.540;9.268;2023-04-28T10:18:21;97155.91;;;16.32;100.00
5284;BME280;15377;48.540;9.268;2023-04-28T10:20:51;97157.56;;;16.51;100.00
5284;BME280;15377;48.540;9.268;2023-04-28T10:23:41;97160.44;;;16.70;100.00
5284;BME280;15377;48.540;9.268;2023-04-28T10:26:13;97151.25;;;16.80;100.00
5284;BME280;15377;48.540;9.268;2023-04-28T10:28:49;97160.38;;;16.75;100.00
5284;BME280;15377;48.540;9.268;2023-04-28T10:31:17;97161.09;;;16.81;100.00
5284;BME280;15377;48.540;9.268;2023-04-28T10:33:46;97152.66;;;17.16;100.00
5284;BME280;15377;48.540;9.268;2023-04-28T10:39:11;97166.88;;;17.79;100.00
5284;BME280;15377;48.540;9.268;2023-04-28T10:41:37;97161.09;;;17.96;100.00
5284;BME280;15377;48.540;9.268;2023-04-28T10:47:05;97168.69;;;17.95;100.00
5284;BME280;15377;48.540;9.268;2023-04-28T10:55:33;97177.13;;;17.47;100.00
5284;BME280;15377;48.540;9.268;2023-04-28T11:00:43;97166.47;;;17.27;100.00
5284;BME280;15377;48.540;9.268;2023-04-28T11:06:31;97171.41;;;17.34;100.00
5284;BME280;15377;48.540;9.268;2023-04-28T11:16:53;97168.34;;;18.73;100.00
5284;BME280;15377;48.540;9.268;2023-04-28T11:19:21;97150.69;;;18.96;100.00
5284;BME280;15377;48.540;9.268;2023-04-28T11:21:47;97164.94;;;18.92;100.00
5284;BME280;15377;48.540;9.268;2023-04-28T11:24:13;97172.75;;;18.81;100.00
5284;BME280;15377;48.540;9.268;2023-04-28T11:26:40;97156.22;;;18.83;100.00
5284;BME280;15377;48.540;9.268;2023-04-28T11:29:06;97166.09;;;18.71;100.00
5284;BME280;15377;48.540;9.268;2023-04-28T11:31:31;97175.69;;;18.57;100.00
5284;BME280;15377;48.540;9.268;2023-04-28T11:38:52;97169.50;;;18.27;100.00
5284;BME280;15377;48.540;9.268;2023-04-28T11:41:17;97176.22;;;18.19;100.00
5284;BME280;15377;48.540;9.268;2023-04-28T11:43:43;97167.03;;;18.42;100.00
5284;BME280;15377;48.540;9.268;2023-04-28T11:46:08;97178.91;;;18.61;100.00
5284;BME280;15377;48.540;9.268;2023-04-28T11:48:34;97172.25;;;18.95;100.00
5284;BME280;15377;48.540;9.268;2023-04-28T11:51:00;97160.00;;;18.85;100.00
5284;BME280;15377;48.540;9.268;2023-04-28T11:53:47;97175.72;;;18.70;100.00
5284;BME280;15377;48.540;9.268;2023-04-28T11:56:13;97151.50;;;18.47;100.00
5284;BME280;15377;48.540;9.268;2023-04-28T11:58:38;97153.09;;;18.42;100.00
5284;BME280;15377;48.540;9.268;2023-04-28T12:01:10;97153.75;;;18.67;100.00
5284;BME280;15377;48.540;9.268;2023-04-28T12:03:46;97159.44;;;18.74;100.00
5284;BME280;15377;48.540;9.268;2023-04-28T12:06:16;97155.34;;;18.75;100.00
5284;BME280;15377;48.540;9.268;2023-04-28T12:08:43;97167.31;;;18.57;100.00
5284;BME280;15377;48.540;9.268;2023-04-28T12:11:09;97156.78;;;18.50;100.00
5284;BME280;15377;48.540;9.268;2023-04-28T12:13:36;97162.50;;;18.58;100.00
5284;BME280;15377;48.540;9.268;2023-04-28T12:16:03;97170.25;;;18.65;100.00
5284;BME280;15377;48.540;9.268;2023-04-28T12:18:30;97158.16;;;18.75;100.00
5284;BME280;15377;48.540;9.268;2023-04-28T12:20:56;97162.63;;;18.65;100.00
5284;BME280;15377;48.540;9.268;2023-04-28T12:23:32;97159.78;;;18.52;100.00
5284;BME280;15377;48.540;9.268;2023-04-28T12:25:59;97169.13;;;18.55;100.00
5284;BME280;15377;48.540;9.268;2023-04-28T12:28:38;97171.31;;;18.43;100.00
5284;BME280;15377;48.540;9.268;2023-04-28T12:31:06;97167.22;;;18.31;100.00
5284;BME280;15377;48.540;9.268;2023-04-28T12:33:33;97173.22;;;18.35;100.00
5284;BME280;15377;48.540;9.268;2023-04-28T12:36:03;97182.84;;;18.53;100.00
5284;BME280;15377;48.540;9.268;2023-04-28T12:38:29;97169.78;;;18.92;100.00
5284;BME280;15377;48.540;9.268;2023-04-28T12:40:55;97158.91;;;19.20;100.00
5284;BME280;15377;48.540;9.268;2023-04-28T12:43:21;97168.59;;;19.32;100.00
5284;BME280;15377;48.540;9.268;2023-04-28T12:45:49;97152.78;;;19.34;100.00
5284;BME280;15377;48.540;9.268;2023-04-28T12:48:14;97158.47;;;19.16;100.00
5284;BME280;15377;48.540;9.268;2023-04-28T12:50:40;97167.53;;;18.90;100.00
5284;BME280;15377;48.540;9.268;2023-04-28T12:53:05;97170.31;;;18.59;100.00
5284;BME280;15377;48.540;9.268;2023-04-28T12:55:30;97164.31;;;18.55;100.00
5284;BME280;15377;48.540;9.268;2023-04-28T12:57:56;97161.66;;;18.31;100.00
5284;BME280;15377;48.540;9.268;2023-04-28T13:00:21;97154.84;;;18.45;100.00
5284;BME280;15377;48.540;9.268;2023-04-28T13:02:49;97156.84;;;18.76;100.00
5284;BME280;15377;48.540;9.268;2023-04-28T13:05:14;97145.56;;;19.13;100.00
5284;BME280;15377;48.540;9.268;2023-04-28T13:07:40;97145.41;;;19.50;100.00
5284;BME280;15377;48.540;9.268;2023-04-28T13:10:06;97139.31;;;19.98;100.00
5284;BME280;15377;48.540;9.268;2023-04-28T13:12:32;97136.44;;;20.37;100.00
5284;BME280;15377;48.540;9.268;2023-04-28T13:15:00;97148.00;;;20.41;100.00
5284;BME280;15377;48.540;9.268;2023-04-28T13:17:25;97152.19;;;20.47;100.00
5284;BME280;15377;48.540;9.268;2023-04-28T13:19:51;97140.25;;;20.47;100.00
5284;BME280;15377;48.540;9.268;2023-04-28T13:22:16;97133.31;;;20.40;100.00
5284;BME280;15377;48.540;9.268;2023-04-28T13:24:42;97141.25;;;20.36;100.00
5284;BME280;15377;48.540;9.268;2023-04-28T13:27:08;97137.75;;;20.23;100.00
5284;BME280;15377;48.540;9.268;2023-04-28T13:29:34;97134.28;;;20.09;100.00
5284;BME280;15377;48.540;9.268;2023-04-28T13:32:00;97133.09;;;20.05;100.00
5284;BME280;15377;48.540;9.268;2023-04-28T13:34:26;97111.84;;;19.89;100.00
5284;BME280;15377;48.540;9.268;2023-04-28T13:36:52;97127.09;;;19.88;100.00